sensor_id;sensor_type;location;lat;lon;timestamp;noise_LAeq;noise_LA_min;noise_LA_max;noise_LA01;noise_LA95
69670;Laerm;66535;52.370;4.832;2023-11-21T00:00:08;47.03;38.75;67.42;;
69670;Laerm;66535;52.370;4.832;2023-11-21T00:00:43;43.09;39.18;54.98;;
69670;Laerm;66535;52.370;4.832;2023-11-21T00:01:16;45.47;39.95;52.90;;
69670;Laerm;66535;52.370;4.832;2023-11-21T00:01:48;43.84;39.39;59.41;;
69670;Laerm;66535;52.370;4.832;2023-11-21T00:02:21;44.75;40.44;48.58;;
69670;Laerm;66535;52.370;4.832;2023-11-21T00:02:52;43.79;39.07;52.75;;
69670;Laerm;66535;52.370;4.832;2023-11-21T00:03:25;42.89;38.50;50.35;;
69670;Laerm;66535;52.370;4.832;2023-11-21T00:03:59;42.68;38.95;50.72;;
69670;Laerm;66535;52.370;4.832;2023-11-21T00:04:30;48.67;43.74;53.43;;
69670;Laerm;66535;52.370;4.832;2023-11-21T00:05:01;48.47;42.49;58.26;;
69670;Laerm;66535;52.370;4.832;2023-11-21T00:05:34;45.17;41.78;48.90;;
69670;Laerm;66535;52.370;4.832;2023-11-21T00:06:06;43.68;39.66;49.60;;
69670;Laerm;66535;52.370;4.832;2023-11-21T00:06:40;42.29;38.87;47.53;;
69670;Laerm;66535;52.370;4.832;2023-11-21T00:07:11;45.20;41.11;53.68;;
69670;Laerm;66535;52.370;4.832;2023-11-21T00:07:43;44.51;40.99;49.98;;
69670;Laerm;66535;52.370;4.832;2023-11-21T00:08:15;50.33;44.79;58.19;;
69670;Laerm;66535;52.370;4.832;2023-11-21T00:08:48;45.26;38.36;53.43;;
69670;Laerm;66535;52.370;4.832;2023-11-21T00:09:19;45.63;39.53;52.26;;
69670;Laerm;66535;52.370;4.832;2023-11-21T00:09:50;46.53;38.75;70.03;;
69670;Laerm;66535;52.370;4.832;2023-11-21T00:10:23;44.26;40.19;50.60;;
69670;Laerm;66535;52.370;4.832;2023-11-21T00:10:54;44.83;39.34;53.95;;
69670;Laerm;66535;52.370;4.832;2023-11-21T00:11:25;42.00;38.48;49.86;;
69670;Laerm;66535;52.370;4.832;2023-11-21T00:11:57;44.36;38.95;50.86;;
69670;Laerm;66535;52.370;4.832;2023-11-21T00:12:30;43.44;38.83;49.87;;
69670;Laerm;66535;52.370;4.832;2023-11-21T00:13:02;42.56;38.63;51.48;;
69670;Laerm;66535;52.370;4.832;2023-11-21T00:13:33;40.96;37.96;45.33;;
69670;Laerm;66535;52.370;4.832;2023-11-21T00:14:05;40.87;37.48;49.69;;
69670;Laerm;66535;52.370;4.832;2023-11-21T00:14:37;43.74;38.50;55.81;;
69670;Laerm;66535;52.370;4.832;2023-11-21T00:15:10;41.00;37.72;49.98;;
69670;Laerm;66535;52.370;4.832;2023-11-21T00:15:41;42.93;38.80;49.08;;
69670;Laerm;66535;52.370;4.832;2023-11-21T00:16:13;44.56;38.51;51.92;;
69670;Laerm;66535;52.370;4.832;2023-11-21T00:16:45;49.01;39.81;61.55;;
69670;Laerm;66535;52.370;4.832;2023-11-21T00:17:16;40.20;37.49;53.35;;
69670;Laerm;66535;52.370;4.832;2023-11-21T00:17:47;50.65;38.71;60.92;;
69670;Laerm;66535;52.370;4.832;2023-11-21T00:18:19;52.43;45.37;58.96;;
69670;Laerm;66535;52.370;4.832;2023-11-21T00:18:54;47.00;42.61;53.77;;
69670;Laerm;66535;52.370;4.832;2023-11-21T00:19:25;50.28;42.04;59.11;;
69670;Laerm;66535;52.370;4.832;2023-11-21T00:19:56;43.75;38.12;54.05;;
69670;Laerm;66535;52.370;4.832;2023-11-21T00:20:27;41.03;37.58;52.35;;
69670;Laerm;66535;52.370;4.832;2023-11-21T00:21:00;41.74;39.10;50.89;;
69670;Laerm;66535;52.370;4.832;2023-11-21T00:21:31;43.26;38.70;51.85;;
69670;Laerm;66535;52.370;4.832;2023-11-21T00:22:02;44.52;41.05;49.64;;
69670;Laerm;66535;52.370;4.832;2023-11-21T00:22:33;44.88;40.35;50.96;;
69670;Laerm;66535;52.370;4.832;2023-11-21T00:23:06;39.75;37.19;44.01;;
69670;Laerm;66535;52.370;4.832;2023-11-21T00:23:38;43.08;38.02;57.33;;
69670;Laerm;66535;52.370;4.832;2023-11-21T00:24:11;42.08;38.64;48.68;;
69670;Laerm;66535;52.370;4.832;2023-11-21T00:24:44;44.64;38.98;56.60;;
69670;Laerm;66535;52.370;4.832;2023-11-21T00:25:16;46.85;37.87;56.01;;
69670;Laerm;66535;52.370;4.832;2023-11-21T00:25:48;50.64;40.85;61.03;;
69670;Laerm;66535;52.370;4.832;2023-11-21T00:26:19;41.06;37.20;47.77;;
69670;Laerm;66535;52.370;4.832;2023-11-21T00:26:51;44.19;39.17;50.74;;
69670;Laerm;66535;52.370;4.832;2023-11-21T00:27:24;44.73;39.57;60.02;;
69670;Laerm;66535;52.370;4.832;2023-11-21T00:27:55;42.23;37.71;48.61;;
69670;Laerm;66535;52.370;4.832;2023-11-21T00:28:26;40.11;37.40;44.05;;
69670;Laerm;66535;52.370;4.832;2023-11-21T00:28:58;39.91;36.89;48.37;;
69670;Laerm;66535;52.370;4.832;2023-11-21T00:29:30;42.86;37.08;48.56;;
69670;Laerm;66535;52.370;4.832;2023-11-21T00:30:02;44.84;40.26;50.13;;
69670;Laerm;66535;52.370;4.832;2023-11-21T00:30:38;45.90;40.42;52.82;;
69670;Laerm;66535;52.370;4.832;2023-11-21T00:31:10;44.71;39.06;50.09;;
69670;Laerm;66535;52.370;4.832;2023-11-21T00:31:41;41.56;37.94;47.93;;
69670;Laerm;66535;52.370;4.832;2023-11-21T00:32:12;41.01;37.30;50.59;;
69670;Laerm;66535;52.370;4.832;2023-11-21T00:32:44;42.81;37.79;50.65;;
69670;Laerm;66535;52.370;4.832;2023-11-21T00:33:16;40.11;37.32;47.77;;
69670;Laerm;66535;52.370;4.832;2023-11-21T00:33:48;41.94;38.20;48.10;;
69670;Laerm;66535;52.370;4.832;2023-11-21T00:34:19;39.66;36.88;42.74;;
69670;Laerm;66535;52.370;4.832;2023-11-21T00:34:50;49.56;40.08;62.96;;
69670;Laerm;66535;52.370;4.832;2023-11-21T00:35:22;47.56;41.92;56.36;;
69670;Laerm;66535;52.370;4.832;2023-11-21T00:35:54;44.29;38.38;54.84;;
69670;Laerm;66535;52.370;4.832;2023-11-21T00:36:25;42.61;39.54;48.88;;
69670;Laerm;66535;52.370;4.832;2023-11-21T00:36:56;42.91;38.55;47.99;;
69670;Laerm;66535;52.370;4.832;2023-11-21T00:37:28;51.22;41.83;60.93;;
69670;Laerm;66535;52.370;4.832;2023-11-21T00:38:03;43.49;39.71;48.41;;
69670;Laerm;66535;52.370;4.832;2023-11-21T00:38:34;42.75;38.28;48.08;;
69670;Laerm;66535;52.370;4.832;2023-11-21T00:39:05;42.97;37.75;48.91;;
69670;Laerm;66535;52.370;4.832;2023-11-21T00:39:40;40.84;37.03;50.52;;
69670;Laerm;66535;52.370;4.832;2023-11-21T00:40:12;44.65;40.00;50.90;;
69670;Laerm;66535;52.370;4.832;2023-11-21T00:40:43;46.13;42.14;52.28;;
69670;Laerm;66535;52.370;4.832;2023-11-21T00:41:15;45.10;40.99;52.65;;
69670;Laerm;66535;52.370;4.832;2023-11-21T00:41:47;41.53;37.45;46.07;;
69670;Laerm;66535;52.370;4.832;2023-11-21T00:42:22;41.06;36.87;45.29;;
69670;Laerm;66535;52.370;4.832;2023-11-21T00:42:53;44.32;39.45;51.54;;
69670;Laerm;66535;52.370;4.832;2023-11-21T00:43:26;43.69;37.55;49.32;;
69670;Laerm;66535;52.370;4.832;2023-11-21T00:43:58;42.28;37.74;50.87;;
69670;Laerm;66535;52.370;4.832;2023-11-21T00:44:30;42.75;38.74;48.75;;
69670;Laerm;66535;52.370;4.832;2023-11-21T00:45:01;41.81;37.09;54.82;;
69670;Laerm;66535;52.370;4.832;2023-11-21T00:45:34;37.64;35.71;40.16;;
69670;Laerm;66535;52.370;4.832;2023-11-21T00:46:07;44.21;36.39;53.12;;
69670;Laerm;66535;52.370;4.832;2023-11-21T00:46:38;42.90;38.09;52.13;;
69670;Laerm;66535;52.370;4.832;2023-11-21T00:47:10;38.31;35.09;45.95;;
69670;Laerm;66535;52.370;4.832;2023-11-21T00:47:41;37.80;35.50;43.32;;
69670;Laerm;66535;52.370;4.832;2023-11-21T00:48:13;39.80;36.86;45.71;;
69670;Laerm;66535;52.370;4.832;2023-11-21T00:48:45;45.15;36.99;56.84;;
69670;Laerm;66535;52.370;4.832;2023-11-21T00:49:16;48.05;37.63;58.05;;
69670;Laerm;66535;52.370;4.832;2023-11-21T00:49:47;40.98;36.36;46.65;;
69670;Laerm;66535;52.370;4.832;2023-11-21T00:50:20;39.78;37.37;43.44;;
69670;Laerm;66535;52.370;4.832;2023-11-21T00:50:52;43.06;36.54;49.35;;
69670;Laerm;66535;52.370;4.832;2023-11-21T00:51:24;43.85;39.05;52.96;;
69670;Laerm;66535;52.370;4.832;2023-11-21T00:51:55;50.47;38.69;61.73;;
69670;Laerm;66535;52.370;4.832;2023-11-21T00:52:28;43.17;38.25;54.11;;
69670;Laerm;66535;52.370;4.832;2023-11-21T00:53:00;42.64;38.61;49.06;;
69670;Laerm;66535;52.370;4.832;2023-11-21T00:53:32;38.98;36.18;47.68;;
69670;Laerm;66535;52.370;4.832;2023-11-21T00:54:04;43.74;35.80;54.59;;
69670;Laerm;66535;52.370;4.832;2023-11-21T00:54:36;42.03;36.25;52.88;;
69670;Laerm;66535;52.370;4.832;2023-11-21T00:55:09;41.65;36.23;48.59;;
69670;Laerm;66535;52.370;4.832;2023-11-21T00:55:43;41.57;35.70;48.53;;
69670;Laerm;66535;52.370;4.832;2023-11-21T00:56:14;38.33;35.29;45.57;;
69670;Laerm;66535;52.370;4.832;2023-11-21T00:56:45;46.74;38.53;53.10;;
69670;Laerm;66535;52.370;4.832;2023-11-21T00:57:18;41.68;37.91;47.67;;
69670;Laerm;66535;52.370;4.832;2023-11-21T00:57:50;40.73;36.14;49.40;;
69670;Laerm;66535;52.370;4.832;2023-11-21T00:58:21;42.01;36.17;48.55;;
69670;Laerm;66535;52.370;4.832;2023-11-21T00:58:53;42.07;37.39;48.74;;
69670;Laerm;66535;52.370;4.832;2023-11-21T00:59:24;47.94;40.42;59.38;;
69670;Laerm;66535;52.370;4.832;2023-11-21T00:59:57;41.18;36.92;53.87;;
69670;Laerm;66535;52.370;4.832;2023-11-21T01:00:28;43.74;36.53;55.11;;
69670;Laerm;66535;52.370;4.832;2023-11-21T01:00:59;40.80;36.60;47.02;;
69670;Laerm;66535;52.370;4.832;2023-11-21T01:01:31;39.79;35.39;50.79;;
69670;Laerm;66535;52.370;4.832;2023-11-21T01:02:02;38.37;34.81;46.94;;
69670;Laerm;66535;52.370;4.832;2023-11-21T01:02:35;46.41;36.62;54.76;;
69670;Laerm;66535;52.370;4.832;2023-11-21T01:03:07;44.87;38.64;49.48;;
69670;Laerm;66535;52.370;4.832;2023-11-21T01:03:39;42.99;37.89;49.17;;
69670;Laerm;66535;52.370;4.832;2023-11-21T01:04:11;40.19;36.76;47.11;;
69670;Laerm;66535;52.370;4.832;2023-11-21T01:04:42;40.74;36.86;48.13;;
69670;Laerm;66535;52.370;4.832;2023-11-21T01:05:14;41.95;37.68;46.90;;
69670;Laerm;66535;52.370;4.832;2023-11-21T01:05:46;45.29;40.74;51.77;;
69670;Laerm;66535;52.370;4.832;2023-11-21T01:06:18;41.71;38.15;49.74;;
69670;Laerm;66535;52.370;4.832;2023-11-21T01:06:50;44.86;36.85;53.80;;
69670;Laerm;66535;52.370;4.832;2023-11-21T01:07:21;38.44;35.37;50.91;;
69670;Laerm;66535;52.370;4.832;2023-11-21T01:07:54;40.29;35.97;49.58;;
69670;Laerm;66535;52.370;4.832;2023-11-21T01:08:28;40.18;36.15;47.11;;
69670;Laerm;66535;52.370;4.832;2023-11-21T01:08:59;39.92;36.84;45.44;;
69670;Laerm;66535;52.370;4.832;2023-11-21T01:09:31;45.80;36.44;56.52;;
69670;Laerm;66535;52.370;4.832;2023-11-21T01:10:03;47.21;36.37;57.50;;
69670;Laerm;66535;52.370;4.832;2023-11-21T01:10:39;42.41;36.12;51.03;;
69670;Laerm;66535;52.370;4.832;2023-11-21T01:11:11;43.52;39.68;50.86;;
69670;Laerm;66535;52.370;4.832;2023-11-21T01:11:43;41.52;36.75;49.90;;
69670;Laerm;66535;52.370;4.832;2023-11-21T01:12:17;42.45;36.66;50.69;;
69670;Laerm;66535;52.370;4.832;2023-11-21T01:12:48;38.58;34.92;56.90;;
69670;Laerm;66535;52.370;4.832;2023-11-21T01:13:20;36.84;34.65;41.78;;
69670;Laerm;66535;52.370;4.832;2023-11-21T01:13:52;39.67;35.25;48.89;;
69670;Laerm;66535;52.370;4.832;2023-11-21T01:14:24;41.34;35.96;48.98;;
69670;Laerm;66535;52.370;4.832;2023-11-21T01:14:57;36.90;34.65;40.06;;
69670;Laerm;66535;52.370;4.832;2023-11-21T01:15:31;37.48;34.56;46.38;;
69670;Laerm;66535;52.370;4.832;2023-11-21T01:16:03;38.76;34.53;48.49;;
69670;Laerm;66535;52.370;4.832;2023-11-21T01:16:35;43.85;34.49;52.43;;
69670;Laerm;66535;52.370;4.832;2023-11-21T01:17:06;43.82;37.89;52.14;;
69670;Laerm;66535;52.370;4.832;2023-11-21T01:17:38;40.98;36.57;45.05;;
69670;Laerm;66535;52.370;4.832;2023-11-21T01:18:10;38.11;35.28;52.46;;
69670;Laerm;66535;52.370;4.832;2023-11-21T01:18:41;39.78;34.65;48.08;;
69670;Laerm;66535;52.370;4.832;2023-11-21T01:19:13;39.02;35.40;44.62;;
69670;Laerm;66535;52.370;4.832;2023-11-21T01:19:44;40.81;35.71;50.23;;
69670;Laerm;66535;52.370;4.832;2023-11-21T01:20:16;38.03;34.98;46.50;;
69670;Laerm;66535;52.370;4.832;2023-11-21T01:20:48;38.60;34.85;48.40;;
69670;Laerm;66535;52.370;4.832;2023-11-21T01:21:19;38.87;34.74;49.58;;
69670;Laerm;66535;52.370;4.832;2023-11-21T01:21:50;37.95;34.36;45.65;;
69670;Laerm;66535;52.370;4.832;2023-11-21T01:22:23;40.03;36.77;47.85;;
69670;Laerm;66535;52.370;4.832;2023-11-21T01:22:56;46.72;37.19;59.59;;
69670;Laerm;66535;52.370;4.832;2023-11-21T01:23:27;43.80;36.92;50.52;;
69670;Laerm;66535;52.370;4.832;2023-11-21T01:24:00;64.29;43.45;76.73;;
69670;Laerm;66535;52.370;4.832;2023-11-21T01:24:31;66.12;55.66;74.12;;
69670;Laerm;66535;52.370;4.832;2023-11-21T01:25:03;50.99;41.88;59.98;;
69670;Laerm;66535;52.370;4.832;2023-11-21T01:25:39;54.79;43.42;65.95;;
69670;Laerm;66535;52.370;4.832;2023-11-21T01:26:11;59.86;47.23;68.40;;
69670;Laerm;66535;52.370;4.832;2023-11-21T01:26:42;46.87;39.14;53.53;;
69670;Laerm;66535;52.370;4.832;2023-11-21T01:27:16;41.73;37.11;47.96;;
69670;Laerm;66535;52.370;4.832;2023-11-21T01:27:48;40.53;36.50;48.03;;
69670;Laerm;66535;52.370;4.832;2023-11-21T01:28:20;43.89;36.43;52.70;;
69670;Laerm;66535;52.370;4.832;2023-11-21T01:28:51;39.68;36.99;46.72;;
69670;Laerm;66535;52.370;4.832;2023-11-21T01:29:22;40.38;36.58;49.48;;
69670;Laerm;66535;52.370;4.832;2023-11-21T01:29:54;43.48;36.34;50.85;;
69670;Laerm;66535;52.370;4.832;2023-11-21T01:30:25;41.87;35.19;49.55;;
69670;Laerm;66535;52.370;4.832;2023-11-21T01:30:57;38.43;34.96;46.45;;
69670;Laerm;66535;52.370;4.832;2023-11-21T01:31:28;39.96;35.52;48.48;;
69670;Laerm;66535;52.370;4.832;2023-11-21T01:32:02;51.92;36.76;68.12;;
69670;Laerm;66535;52.370;4.832;2023-11-21T01:32:34;42.42;35.99;50.91;;
69670;Laerm;66535;52.370;4.832;2023-11-21T01:33:05;39.52;36.44;53.94;;
69670;Laerm;66535;52.370;4.832;2023-11-21T01:33:36;42.06;37.92;47.51;;
69670;Laerm;66535;52.370;4.832;2023-11-21T01:34:08;40.96;37.42;47.15;;
69670;Laerm;66535;52.370;4.832;2023-11-21T01:34:40;38.53;36.12;45.31;;
69670;Laerm;66535;52.370;4.832;2023-11-21T01:35:11;38.48;35.54;46.03;;
69670;Laerm;66535;52.370;4.832;2023-11-21T01:35:43;43.48;38.45;51.05;;
69670;Laerm;66535;52.370;4.832;2023-11-21T01:36:14;39.60;35.61;47.45;;
69670;Laerm;66535;52.370;4.832;2023-11-21T01:36:45;38.10;35.20;45.44;;
69670;Laerm;66535;52.370;4.832;2023-11-21T01:37:17;36.61;35.07;39.87;;
69670;Laerm;66535;52.370;4.832;2023-11-21T01:37:48;39.18;35.59;45.88;;
69670;Laerm;66535;52.370;4.832;2023-11-21T01:38:20;38.58;35.88;46.74;;
69670;Laerm;66535;52.370;4.832;2023-11-21T01:38:51;37.91;35.29;44.56;;
69670;Laerm;66535;52.370;4.832;2023-11-21T01:39:31;38.89;36.09;46.15;;
69670;Laerm;66535;52.370;4.832;2023-11-21T01:40:03;38.90;36.20;46.33;;
69670;Laerm;66535;52.370;4.832;2023-11-21T01:40:36;41.52;36.61;46.96;;
69670;Laerm;66535;52.370;4.832;2023-11-21T01:41:09;41.90;36.74;49.00;;
69670;Laerm;66535;52.370;4.832;2023-11-21T01:41:42;41.42;36.10;49.82;;
69670;Laerm;66535;52.370;4.832;2023-11-21T01:42:15;43.68;36.55;52.01;;
69670;Laerm;66535;52.370;4.832;2023-11-21T01:42:46;40.35;37.67;45.76;;
69670;Laerm;66535;52.370;4.832;2023-11-21T01:43:19;46.06;40.77;52.53;;
69670;Laerm;66535;52.370;4.832;2023-11-21T01:43:51;42.77;38.46;51.69;;
69670;Laerm;66535;52.370;4.832;2023-11-21T01:44:22;38.94;36.70;43.40;;
69670;Laerm;66535;52.370;4.832;2023-11-21T01:44:55;38.94;36.01;51.93;;
69670;Laerm;66535;52.370;4.832;2023-11-21T01:45:26;38.38;35.58;53.50;;
69670;Laerm;66535;52.370;4.832;2023-11-21T01:46:00;39.32;35.58;50.86;;
69670;Laerm;66535;52.370;4.832;2023-11-21T01:46:31;37.72;35.58;42.14;;
69670;Laerm;66535;52.370;4.832;2023-11-21T01:47:02;37.97;35.51;44.00;;
69670;Laerm;66535;52.370;4.832;2023-11-21T01:47:35;38.22;35.80;46.00;;
69670;Laerm;66535;52.370;4.832;2023-11-21T01:48:08;39.65;36.18;47.56;;
69670;Laerm;66535;52.370;4.832;2023-11-21T01:48:39;42.76;37.39;54.29;;
69670;Laerm;66535;52.370;4.832;2023-11-21T01:49:11;43.55;35.96;60.35;;
69670;Laerm;66535;52.370;4.832;2023-11-21T01:49:44;38.14;35.76;42.60;;
69670;Laerm;66535;52.370;4.832;2023-11-21T01:50:17;37.96;36.22;43.14;;
69670;Laerm;66535;52.370;4.832;2023-11-21T01:50:49;41.27;35.53;49.06;;
69670;Laerm;66535;52.370;4.832;2023-11-21T01:51:20;45.44;36.73;53.84;;
69670;Laerm;66535;52.370;4.832;2023-11-21T01:51:51;40.18;35.54;47.72;;
69670;Laerm;66535;52.370;4.832;2023-11-21T01:52:23;38.91;34.94;57.77;;
69670;Laerm;66535;52.370;4.832;2023-11-21T01:52:55;46.60;38.48;60.90;;
69670;Laerm;66535;52.370;4.832;2023-11-21T01:53:27;40.64;36.52;46.52;;
69670;Laerm;66535;52.370;4.832;2023-11-21T01:53:59;41.67;36.29;46.54;;
69670;Laerm;66535;52.370;4.832;2023-11-21T01:54:31;47.58;38.33;54.74;;
69670;Laerm;66535;52.370;4.832;2023-11-21T01:55:03;44.38;37.38;52.47;;
69670;Laerm;66535;52.370;4.832;2023-11-21T01:55:35;42.04;37.10;48.67;;
69670;Laerm;66535;52.370;4.832;2023-11-21T01:56:10;38.57;35.82;45.25;;
69670;Laerm;66535;52.370;4.832;2023-11-21T01:56:42;40.45;36.25;46.82;;
69670;Laerm;66535;52.370;4.832;2023-11-21T01:57:13;40.02;35.10;45.03;;
69670;Laerm;66535;52.370;4.832;2023-11-21T01:57:46;40.74;35.44;47.31;;
69670;Laerm;66535;52.370;4.832;2023-11-21T01:58:19;39.86;35.89;51.96;;
69670;Laerm;66535;52.370;4.832;2023-11-21T01:58:51;38.98;35.98;47.09;;
69670;Laerm;66535;52.370;4.832;2023-11-21T01:59:22;44.21;39.80;51.06;;
69670;Laerm;66535;52.370;4.832;2023-11-21T01:59:54;38.09;34.64;43.05;;
69670;Laerm;66535;52.370;4.832;2023-11-21T02:00:26;37.36;33.38;41.31;;
69670;Laerm;66535;52.370;4.832;2023-11-21T02:00:59;40.03;35.80;47.08;;
69670;Laerm;66535;52.370;4.832;2023-11-21T02:01:30;39.61;35.74;54.25;;
69670;Laerm;66535;52.370;4.832;2023-11-21T02:02:03;39.44;35.44;50.52;;
69670;Laerm;66535;52.370;4.832;2023-11-21T02:02:35;38.01;35.45;43.20;;
69670;Laerm;66535;52.370;4.832;2023-11-21T02:03:06;36.65;34.36;40.65;;
69670;Laerm;66535;52.370;4.832;2023-11-21T02:03:38;37.75;34.93;43.09;;
69670;Laerm;66535;52.370;4.832;2023-11-21T02:04:10;36.73;34.66;40.13;;
69670;Laerm;66535;52.370;4.832;2023-11-21T02:04:41;37.17;34.66;42.96;;
69670;Laerm;66535;52.370;4.832;2023-11-21T02:05:13;37.38;35.41;41.19;;
69670;Laerm;66535;52.370;4.832;2023-11-21T02:05:48;41.90;36.40;49.61;;
69670;Laerm;66535;52.370;4.832;2023-11-21T02:06:20;37.52;35.07;53.13;;
69670;Laerm;66535;52.370;4.832;2023-11-21T02:06:53;37.92;35.03;44.98;;
69670;Laerm;66535;52.370;4.832;2023-11-21T02:07:25;41.79;36.52;49.79;;
69670;Laerm;66535;52.370;4.832;2023-11-21T02:07:56;39.43;35.09;48.25;;
69670;Laerm;66535;52.370;4.832;2023-11-21T02:08:28;38.66;34.48;47.23;;
69670;Laerm;66535;52.370;4.832;2023-11-21T02:08:59;38.19;35.28;42.92;;
69670;Laerm;66535;52.370;4.832;2023-11-21T02:09:31;51.27;38.60;62.58;;
69670;Laerm;66535;52.370;4.832;2023-11-21T02:10:04;46.97;37.59;55.44;;
69670;Laerm;66535;52.370;4.832;2023-11-21T02:10:36;45.90;36.23;56.01;;
69670;Laerm;66535;52.370;4.832;2023-11-21T02:11:08;38.87;36.32;44.78;;
69670;Laerm;66535;52.370;4.832;2023-11-21T02:11:41;38.29;35.98;45.72;;
69670;Laerm;66535;52.370;4.832;2023-11-21T02:12:13;38.54;35.61;44.60;;
69670;Laerm;66535;52.370;4.832;2023-11-21T02:12:46;39.13;35.13;43.25;;
69670;Laerm;66535;52.370;4.832;2023-11-21T02:13:17;39.53;34.97;47.30;;
69670;Laerm;66535;52.370;4.832;2023-11-21T02:13:48;36.78;34.54;40.54;;
69670;Laerm;66535;52.370;4.832;2023-11-21T02:14:21;43.19;37.04;52.94;;
69670;Laerm;66535;52.370;4.832;2023-11-21T02:14:53;39.27;35.75;44.56;;
69670;Laerm;66535;52.370;4.832;2023-11-21T02:15:24;37.76;34.92;46.21;;
69670;Laerm;66535;52.370;4.832;2023-11-21T02:15:59;37.66;35.95;41.25;;
69670;Laerm;66535;52.370;4.832;2023-11-21T02:16:31;40.40;35.87;47.62;;
69670;Laerm;66535;52.370;4.832;2023-11-21T02:17:04;39.72;36.25;45.41;;
69670;Laerm;66535;52.370;4.832;2023-11-21T02:17:35;39.16;35.60;47.22;;
69670;Laerm;66535;52.370;4.832;2023-11-21T02:18:07;36.71;34.18;40.53;;
69670;Laerm;66535;52.370;4.832;2023-11-21T02:18:40;37.30;35.47;39.75;;
69670;Laerm;66535;52.370;4.832;2023-11-21T02:19:12;44.33;36.60;58.33;;
69670;Laerm;66535;52.370;4.832;2023-11-21T02:19:49;42.24;36.35;50.14;;
69670;Laerm;66535;52.370;4.832;2023-11-21T02:20:22;39.28;35.38;43.32;;
69670;Laerm;66535;52.370;4.832;2023-11-21T02:20:55;39.18;35.22;46.25;;
69670;Laerm;66535;52.370;4.832;2023-11-21T02:21:27;36.71;34.56;41.71;;
69670;Laerm;66535;52.370;4.832;2023-11-21T02:21:59;37.75;35.48;44.07;;
69670;Laerm;66535;52.370;4.832;2023-11-21T02:22:34;37.77;35.21;42.09;;
69670;Laerm;66535;52.370;4.832;2023-11-21T02:23:09;37.90;35.47;42.94;;
69670;Laerm;66535;52.370;4.832;2023-11-21T02:23:40;40.35;35.59;46.40;;
69670;Laerm;66535;52.370;4.832;2023-11-21T02:24:15;38.11;35.95;39.91;;
69670;Laerm;66535;52.370;4.832;2023-11-21T02:24:48;40.70;36.43;47.99;;
69670;Laerm;66535;52.370;4.832;2023-11-21T02:25:19;42.86;35.98;50.12;;
69670;Laerm;66535;52.370;4.832;2023-11-21T02:25:50;41.84;35.99;51.77;;
69670;Laerm;66535;52.370;4.832;2023-11-21T02:26:23;39.48;36.21;46.12;;
69670;Laerm;66535;52.370;4.832;2023-11-21T02:26:54;37.43;35.51;41.30;;
69670;Laerm;66535;52.370;4.832;2023-11-21T02:27:25;37.63;35.00;42.36;;
69670;Laerm;66535;52.370;4.832;2023-11-21T02:27:59;44.48;35.84;60.79;;
69670;Laerm;66535;52.370;4.832;2023-11-21T02:28:36;45.27;37.55;57.21;;
69670;Laerm;66535;52.370;4.832;2023-11-21T02:29:09;42.06;37.99;50.47;;
69670;Laerm;66535;52.370;4.832;2023-11-21T02:29:42;38.51;36.68;44.13;;
69670;Laerm;66535;52.370;4.832;2023-11-21T02:30:14;42.47;37.71;48.30;;
69670;Laerm;66535;52.370;4.832;2023-11-21T02:30:47;39.66;36.00;43.80;;
69670;Laerm;66535;52.370;4.832;2023-11-21T02:31:26;37.01;35.45;43.43;;
69670;Laerm;66535;52.370;4.832;2023-11-21T02:32:00;41.57;36.19;51.98;;
69670;Laerm;66535;52.370;4.832;2023-11-21T02:32:32;44.33;39.87;51.20;;
69670;Laerm;66535;52.370;4.832;2023-11-21T02:33:03;44.05;36.91;53.92;;
69670;Laerm;66535;52.370;4.832;2023-11-21T02:33:36;45.65;36.41;55.38;;
69670;Laerm;66535;52.370;4.832;2023-11-21T02:34:08;37.47;34.83;42.36;;
69670;Laerm;66535;52.370;4.832;2023-11-21T02:34:39;41.41;35.24;54.70;;
69670;Laerm;66535;52.370;4.832;2023-11-21T02:35:10;40.01;35.70;48.55;;
69670;Laerm;66535;52.370;4.832;2023-11-21T02:35:43;39.66;36.32;45.98;;
69670;Laerm;66535;52.370;4.832;2023-11-21T02:36:16;43.74;36.85;51.77;;
69670;Laerm;66535;52.370;4.832;2023-11-21T02:36:47;42.19;37.09;50.13;;
69670;Laerm;66535;52.370;4.832;2023-11-21T02:37:20;41.58;37.16;47.79;;
69670;Laerm;66535;52.370;4.832;2023-11-21T02:37:51;44.45;37.53;52.72;;
69670;Laerm;66535;52.370;4.832;2023-11-21T02:38:25;39.21;36.31;43.88;;
69670;Laerm;66535;52.370;4.832;2023-11-21T02:38:56;42.80;36.86;48.64;;
69670;Laerm;66535;52.370;4.832;2023-11-21T02:39:27;43.84;38.51;50.33;;
69670;Laerm;66535;52.370;4.832;2023-11-21T02:39:58;43.32;38.05;48.98;;
69670;Laerm;66535;52.370;4.832;2023-11-21T02:40:31;43.02;37.42;48.14;;
69670;Laerm;66535;52.370;4.832;2023-11-21T02:41:02;38.95;35.79;45.58;;
69670;Laerm;66535;52.370;4.832;2023-11-21T02:41:35;38.69;35.53;46.90;;
69670;Laerm;66535;52.370;4.832;2023-11-21T02:42:06;42.80;37.37;50.44;;
69670;Laerm;66535;52.370;4.832;2023-11-21T02:42:38;43.73;38.94;50.81;;
69670;Laerm;66535;52.370;4.832;2023-11-21T02:43:11;42.60;38.17;47.35;;
69670;Laerm;66535;52.370;4.832;2023-11-21T02:43:42;41.85;37.42;48.19;;
69670;Laerm;66535;52.370;4.832;2023-11-21T02:44:13;42.45;39.33;47.29;;
69670;Laerm;66535;52.370;4.832;2023-11-21T02:44:46;42.06;39.13;46.75;;
69670;Laerm;66535;52.370;4.832;2023-11-21T02:45:18;42.34;38.88;49.81;;
69670;Laerm;66535;52.370;4.832;2023-11-21T02:45:51;42.76;38.41;48.96;;
69670;Laerm;66535;52.370;4.832;2023-11-21T02:46:22;42.03;35.90;49.76;;
69670;Laerm;66535;52.370;4.832;2023-11-21T02:46:55;39.62;35.83;48.94;;
69670;Laerm;66535;52.370;4.832;2023-11-21T02:47:28;40.64;37.43;46.72;;
69670;Laerm;66535;52.370;4.832;2023-11-21T02:47:59;38.64;35.45;44.65;;
69670;Laerm;66535;52.370;4.832;2023-11-21T02:48:34;40.63;35.14;64.42;;
69670;Laerm;66535;52.370;4.832;2023-11-21T02:49:07;41.19;35.94;47.28;;
69670;Laerm;66535;52.370;4.832;2023-11-21T02:49:38;41.58;36.93;49.90;;
69670;Laerm;66535;52.370;4.832;2023-11-21T02:50:09;38.64;36.26;47.07;;
69670;Laerm;66535;52.370;4.832;2023-11-21T02:50:41;38.00;34.91;47.08;;
69670;Laerm;66535;52.370;4.832;2023-11-21T02:51:14;38.32;35.74;49.30;;
69670;Laerm;66535;52.370;4.832;2023-11-21T02:51:46;43.00;37.15;50.19;;
69670;Laerm;66535;52.370;4.832;2023-11-21T02:52:18;45.38;40.83;49.76;;
69670;Laerm;66535;52.370;4.832;2023-11-21T02:52:50;40.94;36.94;51.56;;
69670;Laerm;66535;52.370;4.832;2023-11-21T02:53:21;38.87;35.48;48.15;;
69670;Laerm;66535;52.370;4.832;2023-11-21T02:53:56;39.69;35.12;46.29;;
69670;Laerm;66535;52.370;4.832;2023-11-21T02:54:29;41.23;36.33;50.81;;
69670;Laerm;66535;52.370;4.832;2023-11-21T02:55:01;40.61;36.69;47.46;;
69670;Laerm;66535;52.370;4.832;2023-11-21T02:55:32;38.28;34.56;43.80;;
69670;Laerm;66535;52.370;4.832;2023-11-21T02:56:06;36.58;34.51;39.44;;
69670;Laerm;66535;52.370;4.832;2023-11-21T02:56:38;47.32;36.79;54.54;;
69670;Laerm;66535;52.370;4.832;2023-11-21T02:57:10;41.45;35.88;47.78;;
69670;Laerm;66535;52.370;4.832;2023-11-21T02:57:42;38.09;35.28;47.07;;
69670;Laerm;66535;52.370;4.832;2023-11-21T02:58:14;39.11;35.93;45.58;;
69670;Laerm;66535;52.370;4.832;2023-11-21T02:58:45;39.11;36.10;48.15;;
69670;Laerm;66535;52.370;4.832;2023-11-21T02:59:16;43.37;38.17;49.61;;
69670;Laerm;66535;52.370;4.832;2023-11-21T02:59:48;40.53;34.93;49.66;;